Time;durP1;ratioP1;P1;durP2;ratioP2;P2;SDS_P1;SDS_P2;PMS_P1;PMS_P2;Temp;Humidity;BMP_temperature;BMP_pressure;BME280_temperature;BME280_humidity;BME280_pressure;Samples;Min_cycle;Max_cycle;Signal;HPM_P1;HPM_P2
2021/07/15 00:00:49;;;;;;;4.37;0.78;;;17.40;99.90;;;;;;1923933;74;21039;-75
2021/07/15 00:03:16;;;;;;;0.40;0.40;;;17.30;99.90;;;;;;1924089;74;21090;-74
2021/07/15 00:05:42;;;;;;;0.35;0.35;;;17.30;99.90;;;;;;1923539;74;21150;-75
2021/07/15 00:08:08;;;;;;;0.30;0.30;;;17.20;99.90;;;;;;1924057;74;21189;-75
2021/07/15 00:10:35;;;;;;;0.35;0.30;;;17.20;99.90;;;;;;1923910;74;21111;-75
2021/07/15 00:13:01;;;;;;;0.10;0.10;;;17.20;99.90;;;;;;1924126;74;21096;-75
2021/07/15 00:15:27;;;;;;;0.30;0.30;;;17.30;99.90;;;;;;1924106;74;21503;-75
2021/07/15 00:17:53;;;;;;;0.45;0.30;;;17.30;99.90;;;;;;1923964;74;21617;-74
2021/07/15 00:20:19;;;;;;;0.25;0.25;;;17.20;99.90;;;;;;1923892;74;21523;-75
2021/07/15 00:22:45;;;;;;;0.20;0.20;;;17.20;99.90;;;;;;1924087;74;21535;-75
2021/07/15 00:25:11;;;;;;;0.85;0.25;;;17.20;99.90;;;;;;1923905;74;21545;-75
2021/07/15 00:27:37;;;;;;;0.30;0.30;;;17.20;99.90;;;;;;1923899;74;21446;-75
2021/07/15 00:30:03;;;;;;;0.65;0.28;;;17.10;99.90;;;;;;1924052;74;21059;-75
2021/07/15 00:32:30;;;;;;;0.45;0.30;;;17.10;99.90;;;;;;1923871;74;21058;-75
2021/07/15 00:34:56;;;;;;;0.23;0.23;;;17.00;99.90;;;;;;1924081;73;21173;-75
2021/07/15 00:37:22;;;;;;;0.50;0.23;;;17.10;99.90;;;;;;1924087;74;21195;-75
2021/07/15 00:39:48;;;;;;;0.30;0.30;;;17.10;99.90;;;;;;1924173;73;21106;-75
2021/07/15 00:42:14;;;;;;;1.10;0.30;;;16.90;99.90;;;;;;1923906;74;21156;-74
2021/07/15 00:44:40;;;;;;;0.25;0.20;;;16.80;99.90;;;;;;1924035;74;21149;-75
2021/07/15 00:47:06;;;;;;;0.20;0.20;;;16.70;99.90;;;;;;1923909;73;21072;-75
2021/07/15 00:49:32;;;;;;;0.20;0.20;;;16.70;99.90;;;;;;1924095;73;21113;-75
2021/07/15 00:51:59;;;;;;;0.10;0.10;;;16.60;99.90;;;;;;1923931;74;21070;-75
2021/07/15 00:54:25;;;;;;;0.10;0.10;;;16.60;99.90;;;;;;1924077;74;21110;-75
2021/07/15 00:56:51;;;;;;;0.40;0.15;;;16.50;99.90;;;;;;1924157;74;21070;-75
2021/07/15 00:59:20;;;;;;;0.68;0.20;;;16.50;99.90;;;;;;1924125;74;21066;-75
2021/07/15 01:01:45;;;;;;;0.78;0.20;;;16.40;99.90;;;;;;1923983;74;21146;-75
2021/07/15 01:04:11;;;;;;;0.10;0.10;;;16.30;99.90;;;;;;1923866;73;21075;-75
2021/07/15 01:06:37;;;;;;;0.20;0.20;;;16.30;99.90;;;;;;1924038;74;21184;-75
2021/07/15 01:09:03;;;;;;;0.00;0.00;;;16.30;99.90;;;;;;1923938;74;21149;-74
2021/07/15 01:11:29;;;;;;;0.08;0.08;;;16.10;99.90;;;;;;1923942;74;21067;-75
2021/07/15 01:13:55;;;;;;;0.00;0.00;;;16.10;99.90;;;;;;1923951;74;21111;-74
2021/07/15 01:16:21;;;;;;;0.08;0.08;;;16.10;99.90;;;;;;1923956;74;21181;-75
2021/07/15 01:18:48;;;;;;;0.00;0.00;;;16.00;99.90;;;;;;1923827;74;21059;-75
2021/07/15 01:21:14;;;;;;;0.10;0.10;;;16.00;99.90;;;;;;1924009;74;21099;-75
2021/07/15 01:23:40;;;;;;;0.95;0.10;;;16.00;99.90;;;;;;1924121;74;21082;-75
2021/07/15 01:26:07;;;;;;;0.65;0.13;;;16.00;99.90;;;;;;1924096;74;21527;-75
2021/07/15 01:28:33;;;;;;;0.20;0.20;;;16.00;99.90;;;;;;1923841;74;21544;-75
2021/07/15 01:30:59;;;;;;;0.00;0.00;;;16.00;99.90;;;;;;1924158;74;21491;-75
2021/07/15 01:33:25;;;;;;;0.50;0.20;;;16.00;99.90;;;;;;1923960;74;21096;-74
2021/07/15 01:35:51;;;;;;;0.20;0.20;;;15.90;99.90;;;;;;1924171;74;21078;-75
2021/07/15 01:38:18;;;;;;;0.10;0.10;;;15.90;99.90;;;;;;1923859;74;21042;-74
2021/07/15 01:40:44;;;;;;;0.20;0.20;;;15.80;99.90;;;;;;1924033;74;21111;-74
2021/07/15 01:43:10;;;;;;;0.10;0.10;;;15.80;99.90;;;;;;1923912;74;21185;-75
2021/07/15 01:45:36;;;;;;;1.75;0.20;;;15.80;99.90;;;;;;1923937;74;21153;-74
2021/07/15 01:48:02;;;;;;;1.65;0.20;;;15.80;99.90;;;;;;1923955;74;21598;-74
2021/07/15 01:50:28;;;;;;;1.77;0.15;;;15.70;99.90;;;;;;1923928;74;21503;-74
2021/07/15 01:52:54;;;;;;;4.12;0.10;;;15.70;99.90;;;;;;1923628;74;21544;-75
2021/07/15 01:55:20;;;;;;;0.40;0.10;;;15.70;99.90;;;;;;1923838;74;21482;-75
2021/07/15 01:57:47;;;;;;;1.17;0.30;;;15.80;99.90;;;;;;1924018;74;21608;-74
2021/07/15 02:00:13;;;;;;;0.53;0.20;;;15.70;99.90;;;;;;1923869;74;21550;-74
2021/07/15 02:02:39;;;;;;;0.62;0.20;;;15.70;99.90;;;;;;1924077;73;21547;-74
2021/07/15 02:05:05;;;;;;;0.47;0.20;;;15.70;99.90;;;;;;1923847;74;21074;-74
2021/07/15 02:07:31;;;;;;;0.35;0.20;;;15.70;99.90;;;;;;1924023;74;21168;-74
2021/07/15 02:09:57;;;;;;;0.57;0.20;;;15.70;99.90;;;;;;1923853;74;21148;-75
2021/07/15 02:12:23;;;;;;;0.65;0.30;;;15.70;99.90;;;;;;1923994;74;21106;-75
2021/07/15 02:14:49;;;;;;;0.13;0.13;;;15.70;99.90;;;;;;1923492;74;21148;-75
2021/07/15 02:17:16;;;;;;;2.27;0.20;;;15.70;99.90;;;;;;1924070;74;21107;-75
2021/07/15 02:19:42;;;;;;;0.70;0.25;;;15.70;99.90;;;;;;1923962;74;21075;-75
2021/07/15 02:22:08;;;;;;;0.88;0.20;;;15.70;99.90;;;;;;1923948;74;21038;-75
2021/07/15 02:24:34;;;;;;;0.10;0.10;;;15.60;99.90;;;;;;1924124;74;21074;-75
2021/07/15 02:27:00;;;;;;;0.70;0.10;;;15.60;99.90;;;;;;1924030;74;21070;-74
2021/07/15 02:29:26;;;;;;;1.47;0.15;;;15.70;99.90;;;;;;1924081;74;21096;-75
2021/07/15 02:31:52;;;;;;;3.10;0.20;;;15.60;99.90;;;;;;1923982;74;21177;-75
2021/07/15 02:34:18;;;;;;;0.10;0.10;;;15.60;99.90;;;;;;1924129;74;21044;-75
2021/07/15 02:36:45;;;;;;;0.23;0.15;;;15.60;99.90;;;;;;1924039;74;21196;-75
2021/07/15 02:39:11;;;;;;;1.00;0.00;;;15.60;99.90;;;;;;1923692;74;21503;-75
2021/07/15 02:41:38;;;;;;;0.10;0.10;;;15.60;99.90;;;;;;1924189;74;21078;-75
2021/07/15 02:44:04;;;;;;;1.62;0.10;;;15.60;99.90;;;;;;1924151;74;21075;-75
2021/07/15 02:46:30;;;;;;;0.65;0.10;;;15.50;99.90;;;;;;1923874;74;21043;-75
2021/07/15 02:48:56;;;;;;;0.65;0.20;;;15.60;99.90;;;;;;1924195;74;21169;-75
2021/07/15 02:51:22;;;;;;;0.00;0.00;;;15.60;99.90;;;;;;1924203;74;21123;-76
2021/07/15 02:53:48;;;;;;;0.28;0.20;;;15.70;99.90;;;;;;1924210;74;21140;-75
2021/07/15 02:56:14;;;;;;;0.10;0.10;;;15.80;99.90;;;;;;1924232;74;21040;-75
2021/07/15 02:58:41;;;;;;;0.10;0.10;;;15.70;99.90;;;;;;1924193;74;21110;-75
2021/07/15 03:01:07;;;;;;;0.57;0.10;;;15.80;99.90;;;;;;1924096;73;21099;-75
2021/07/15 03:03:33;;;;;;;0.17;0.10;;;15.70;99.90;;;;;;1924149;74;21157;-75
2021/07/15 03:05:59;;;;;;;0.10;0.03;;;15.60;99.90;;;;;;1923998;74;21083;-75
2021/07/15 03:08:25;;;;;;;0.17;0.10;;;15.60;99.90;;;;;;1924165;74;21102;-75
2021/07/15 03:10:51;;;;;;;0.10;0.10;;;15.70;99.90;;;;;;1923859;74;21112;-75
2021/07/15 03:13:17;;;;;;;0.00;0.00;;;15.80;99.90;;;;;;1924221;74;21071;-75
2021/07/15 03:15:44;;;;;;;0.20;0.10;;;15.80;99.90;;;;;;1923846;74;21078;-74
2021/07/15 03:18:10;;;;;;;0.80;0.10;;;15.80;99.90;;;;;;1924218;74;21070;-75
2021/07/15 03:20:36;;;;;;;0.00;0.00;;;15.80;99.90;;;;;;1924212;74;21076;-75
2021/07/15 03:23:04;;;;;;;0.25;0.10;;;15.70;99.90;;;;;;1923924;73;21105;-75
2021/07/15 03:25:30;;;;;;;1.42;0.20;;;15.80;99.90;;;;;;1924049;73;21119;-75
2021/07/15 03:27:56;;;;;;;4.83;0.15;;;15.80;99.90;;;;;;1923930;74;21107;-75
2021/07/15 03:30:22;;;;;;;0.10;0.10;;;15.80;99.90;;;;;;1924314;74;21101;-75
2021/07/15 03:32:49;;;;;;;0.33;0.10;;;15.90;99.90;;;;;;1924024;74;21183;-75
2021/07/15 03:35:15;;;;;;;0.10;0.10;;;15.80;99.90;;;;;;1923978;74;21265;-75
2021/07/15 03:37:41;;;;;;;0.65;0.10;;;15.80;99.90;;;;;;1923826;74;21082;-75
2021/07/15 03:40:08;;;;;;;0.10;0.10;;;15.80;99.90;;;;;;1923587;73;21148;-74
2021/07/15 03:42:34;;;;;;;0.08;0.08;;;15.90;99.90;;;;;;1923634;74;21042;-75
2021/07/15 03:45:00;;;;;;;0.00;0.00;;;15.90;99.90;;;;;;1923696;74;21160;-74
2021/07/15 03:47:26;;;;;;;0.78;0.10;;;15.90;99.90;;;;;;1923555;74;21066;-74
2021/07/15 03:49:52;;;;;;;0.68;0.10;;;15.90;99.90;;;;;;1923724;73;21039;-74
2021/07/15 03:52:18;;;;;;;0.03;0.00;;;15.90;99.90;;;;;;1923553;74;21125;-75
2021/07/15 03:54:45;;;;;;;1.65;0.08;;;15.90;99.90;;;;;;1923580;74;21090;-73
2021/07/15 03:57:11;;;;;;;0.62;0.23;;;15.90;99.90;;;;;;1923491;74;21431;-74
2021/07/15 03:59:37;;;;;;;0.08;0.08;;;15.90;99.90;;;;;;1923561;74;21601;-75
2021/07/15 04:02:03;;;;;;;3.20;0.20;;;15.90;99.90;;;;;;1923494;74;21467;-74
2021/07/15 04:04:29;;;;;;;0.10;0.10;;;15.90;99.90;;;;;;1922977;74;21498;-75
2021/07/15 04:06:57;;;;;;;0.08;0.08;;;16.00;99.90;;;;;;1923746;74;21067;-74
2021/07/15 04:09:23;;;;;;;0.03;0.03;;;16.00;99.90;;;;;;1923699;74;21221;-75
2021/07/15 04:11:50;;;;;;;0.10;0.10;;;16.00;99.90;;;;;;1923590;74;21035;-75
2021/07/15 04:14:18;;;;;;;1.95;0.20;;;16.00;99.90;;;;;;1923380;74;21144;-75
2021/07/15 04:16:45;;;;;;;0.10;0.10;;;16.00;99.90;;;;;;1923663;74;21136;-75
2021/07/15 04:19:11;;;;;;;0.62;0.10;;;16.10;99.90;;;;;;1923775;74;21047;-74
2021/07/15 04:21:37;;;;;;;0.13;0.10;;;16.10;99.90;;;;;;1924947;74;21077;-71
2021/07/15 04:24:04;;;;;;;4.47;0.30;;;16.10;99.90;;;;;;1927363;72;21161;-74
2021/07/15 04:26:30;;;;;;;0.33;0.15;;;16.10;99.90;;;;;;1926553;73;21071;-75
2021/07/15 04:28:56;;;;;;;0.20;0.20;;;16.20;99.90;;;;;;1923641;74;21514;-74
2021/07/15 04:31:24;;;;;;;0.30;0.20;;;16.20;99.90;;;;;;1923649;74;21096;-74
2021/07/15 04:33:50;;;;;;;1.30;0.25;;;16.30;99.90;;;;;;1923535;74;21161;-74
2021/07/15 04:36:16;;;;;;;0.08;0.08;;;16.40;99.90;;;;;;1923637;74;21079;-75
2021/07/15 04:38:42;;;;;;;3.22;0.30;;;16.40;99.90;;;;;;1923613;74;21040;-75
2021/07/15 04:41:08;;;;;;;0.47;0.40;;;16.40;99.90;;;;;;1923776;74;21050;-74
2021/07/15 04:43:34;;;;;;;0.65;0.40;;;16.50;99.90;;;;;;1923520;73;21534;-73
2021/07/15 04:46:00;;;;;;;0.17;0.17;;;16.50;99.90;;;;;;1923534;74;21466;-75
2021/07/15 04:48:27;;;;;;;7.30;0.60;;;16.60;99.90;;;;;;1923574;74;21495;-74
2021/07/15 04:50:53;;;;;;;0.23;0.23;;;16.50;99.90;;;;;;1923646;74;21563;-74
2021/07/15 04:53:19;;;;;;;1.10;0.25;;;16.40;99.90;;;;;;1923589;74;21518;-74
2021/07/15 04:55:46;;;;;;;0.55;0.40;;;16.30;99.90;;;;;;1922357;74;21087;-74
2021/07/15 04:58:12;;;;;;;0.20;0.20;;;16.20;99.90;;;;;;1923528;74;21113;-75
2021/07/15 05:00:38;;;;;;;2.52;0.25;;;16.30;99.90;;;;;;1923530;74;21164;-74
2021/07/15 05:03:04;;;;;;;0.20;0.20;;;16.30;99.90;;;;;;1923582;74;21078;-74
2021/07/15 05:05:30;;;;;;;3.10;0.40;;;16.30;99.90;;;;;;1923444;74;21078;-74
2021/07/15 05:07:56;;;;;;;5.85;0.30;;;16.30;99.90;;;;;;1923610;74;21130;-75
2021/07/15 05:10:22;;;;;;;0.10;0.10;;;16.40;99.90;;;;;;1923476;74;21198;-74
2021/07/15 05:12:48;;;;;;;0.70;0.10;;;16.40;99.90;;;;;;1923650;74;21128;-75
2021/07/15 05:15:15;;;;;;;0.93;0.20;;;16.50;99.90;;;;;;1923460;74;21155;-74
2021/07/15 05:17:41;;;;;;;3.50;0.60;;;16.60;99.90;;;;;;1923614;74;21039;-75
2021/07/15 05:20:07;;;;;;;1.80;0.30;;;16.70;99.90;;;;;;1923403;74;21156;-74
2021/07/15 05:22:33;;;;;;;0.42;0.20;;;16.70;99.90;;;;;;1923584;74;21199;-75
2021/07/15 05:24:59;;;;;;;1.00;0.30;;;16.60;99.90;;;;;;1923492;74;21062;-74
2021/07/15 05:27:25;;;;;;;1.65;0.20;;;16.70;99.90;;;;;;1923553;74;21443;-74
2021/07/15 05:29:51;;;;;;;0.20;0.20;;;16.70;99.90;;;;;;1923341;74;21535;-75
2021/07/15 05:32:17;;;;;;;0.47;0.13;;;16.70;99.90;;;;;;1923132;74;21523;-74
2021/07/15 05:34:44;;;;;;;0.42;0.15;;;16.80;99.90;;;;;;1923269;74;21578;-75
2021/07/15 05:37:10;;;;;;;0.40;0.20;;;16.90;99.90;;;;;;1923492;74;21064;-75
2021/07/15 05:39:36;;;;;;;3.33;1.52;;;16.90;99.90;;;;;;1923457;74;21090;-75
2021/07/15 05:42:02;;;;;;;0.95;0.50;;;16.80;99.90;;;;;;1923461;74;21074;-77
2021/07/15 05:44:28;;;;;;;1.27;0.37;;;17.00;99.90;;;;;;1923570;74;21078;-73
2021/07/15 05:46:54;;;;;;;5.35;0.30;;;16.90;99.90;;;;;;1923606;74;21070;-73
2021/07/15 05:49:20;;;;;;;0.65;0.10;;;16.70;99.90;;;;;;1923825;74;21037;-73
2021/07/15 05:51:47;;;;;;;0.40;0.25;;;16.70;99.90;;;;;;1923844;74;21200;-74
2021/07/15 05:54:13;;;;;;;0.13;0.13;;;16.70;99.90;;;;;;1923619;74;21593;-74
2021/07/15 05:56:39;;;;;;;0.20;0.17;;;16.70;99.90;;;;;;1923683;74;21519;-73
2021/07/15 05:59:05;;;;;;;0.47;0.30;;;16.70;99.90;;;;;;1923801;73;21507;-74
2021/07/15 06:01:31;;;;;;;0.47;0.30;;;16.70;99.90;;;;;;1923925;74;21502;-74
2021/07/15 06:03:57;;;;;;;0.10;0.10;;;16.70;99.90;;;;;;1923917;74;21070;-75
2021/07/15 06:06:24;;;;;;;0.78;0.17;;;16.80;99.90;;;;;;1923726;74;21224;-75
2021/07/15 06:08:52;;;;;;;1.07;0.20;;;16.90;99.90;;;;;;1916950;73;21035;-77
2021/07/15 06:11:17;;;;;;;0.20;0.10;;;16.90;99.90;;;;;;1925798;74;21072;-75
2021/07/15 06:13:44;;;;;;;0.55;0.20;;;17.10;99.90;;;;;;1925811;74;21472;-75
2021/07/15 06:16:11;;;;;;;0.25;0.10;;;17.20;99.90;;;;;;1924386;74;21160;-75
2021/07/15 06:18:38;;;;;;;0.10;0.10;;;17.10;99.90;;;;;;1923771;74;21063;-75
2021/07/15 06:21:08;;;;;;;0.75;0.28;;;17.20;99.90;;;;;;1923804;74;21145;-74
2021/07/15 06:23:34;;;;;;;1.67;0.20;;;17.30;99.90;;;;;;1922643;74;21099;-75
2021/07/15 06:26:01;;;;;;;2.02;0.37;;;17.20;99.90;;;;;;1923538;74;21086;-74
2021/07/15 06:28:27;;;;;;;1.37;0.28;;;17.30;99.90;;;;;;1924010;74;21130;-74
2021/07/15 06:30:53;;;;;;;0.75;0.20;;;17.30;99.90;;;;;;1923928;74;21482;-73
2021/07/15 06:33:19;;;;;;;1.65;0.50;;;17.40;99.90;;;;;;1923976;74;21124;-74
2021/07/15 06:35:49;;;;;;;6.78;0.40;;;17.50;99.90;;;;;;1923789;74;21528;-74
2021/07/15 06:38:13;;;;;;;0.85;0.20;;;17.60;99.90;;;;;;1923636;74;21294;-74
2021/07/15 06:40:39;;;;;;;1.45;0.25;;;17.60;99.90;;;;;;1923666;74;21137;-74
2021/07/15 06:43:16;;;;;;;1.60;0.30;;;17.50;99.90;;;;;;1923618;73;21145;-74
2021/07/15 06:45:42;;;;;;;0.90;0.50;;;17.60;99.90;;;;;;1923778;74;21074;-76
2021/07/15 06:48:09;;;;;;;5.35;0.28;;;17.50;99.90;;;;;;1923836;73;21124;-75
2021/07/15 06:50:35;;;;;;;0.75;0.13;;;17.70;99.90;;;;;;1923609;74;21066;-74
2021/07/15 06:53:01;;;;;;;0.40;0.20;;;18.00;99.90;;;;;;1923715;74;21066;-75
2021/07/15 06:55:27;;;;;;;0.10;0.10;;;18.10;99.90;;;;;;1923739;74;21078;-75
2021/07/15 06:57:53;;;;;;;0.93;0.15;;;18.20;99.90;;;;;;1923928;74;21191;-75
2021/07/15 07:00:20;;;;;;;0.57;0.10;;;18.00;99.90;;;;;;1923945;74;21127;-75
2021/07/15 07:02:46;;;;;;;0.88;0.30;;;18.10;99.90;;;;;;1924120;74;21074;-75
2021/07/15 07:05:12;;;;;;;0.78;0.17;;;17.90;99.90;;;;;;1923945;74;21180;-75
2021/07/15 07:07:38;;;;;;;1.85;0.30;;;17.80;99.90;;;;;;1923813;74;21098;-74
2021/07/15 07:10:04;;;;;;;0.35;0.20;;;17.70;99.90;;;;;;1924073;74;21076;-75
2021/07/15 07:12:30;;;;;;;0.90;0.30;;;17.60;99.90;;;;;;1924080;74;21153;-74
2021/07/15 07:14:57;;;;;;;1.45;0.20;;;17.70;99.90;;;;;;1923978;74;21140;-74
2021/07/15 07:17:23;;;;;;;0.25;0.15;;;17.70;99.90;;;;;;1924042;74;21323;-73
2021/07/15 07:19:49;;;;;;;0.10;0.10;;;17.80;99.90;;;;;;1924024;74;21368;-74
2021/07/15 07:22:15;;;;;;;1.77;0.23;;;18.00;99.90;;;;;;1923747;74;21530;-74
2021/07/15 07:24:41;;;;;;;0.57;0.17;;;18.10;99.90;;;;;;1923793;74;21523;-73
2021/07/15 07:27:07;;;;;;;1.27;0.10;;;18.30;99.90;;;;;;1923627;74;21071;-74
2021/07/15 07:29:33;;;;;;;1.02;0.30;;;18.50;99.90;;;;;;1923846;74;21150;-74
2021/07/15 07:31:59;;;;;;;1.20;0.30;;;18.70;99.90;;;;;;1923853;74;21071;-74
2021/07/15 07:34:26;;;;;;;0.20;0.20;;;18.80;99.90;;;;;;1924028;74;21238;-78
2021/07/15 07:36:52;;;;;;;2.37;0.30;;;18.80;99.90;;;;;;1922835;74;21287;-74
2021/07/15 07:39:18;;;;;;;1.85;0.30;;;18.60;99.90;;;;;;1923782;74;21590;-77
2021/07/15 07:41:44;;;;;;;0.95;0.30;;;18.60;99.90;;;;;;1923912;74;21495;-74
2021/07/15 07:44:11;;;;;;;0.33;0.33;;;18.70;99.90;;;;;;1923772;74;21500;-75
2021/07/15 07:46:37;;;;;;;1.02;0.40;;;18.90;99.90;;;;;;1923855;74;21172;-75
2021/07/15 07:49:03;;;;;;;1.40;0.50;;;19.40;99.90;;;;;;1923983;74;21117;-75
2021/07/15 07:51:29;;;;;;;0.53;0.42;;;19.60;99.90;;;;;;1919991;74;21152;-75
2021/07/15 07:53:56;;;;;;;0.28;0.28;;;19.80;99.90;;;;;;1924351;74;21080;-74
2021/07/15 07:56:22;;;;;;;0.20;0.20;;;19.70;99.90;;;;;;1923864;74;21584;-76
2021/07/15 07:58:48;;;;;;;0.68;0.47;;;19.40;99.90;;;;;;1922734;73;21505;-76
2021/07/15 08:01:17;;;;;;;0.05;0.05;;;19.40;99.90;;;;;;1923383;74;21098;-76
2021/07/15 08:03:42;;;;;;;0.20;0.20;;;19.40;99.90;;;;;;1919212;74;21181;-75
2021/07/15 08:06:09;;;;;;;0.80;0.23;;;19.40;99.90;;;;;;1922720;74;21132;-76
2021/07/15 08:08:37;;;;;;;0.30;0.30;;;19.50;99.90;;;;;;1922734;74;21083;-75
2021/07/15 08:11:10;;;;;;;1.95;0.30;;;19.40;99.90;;;;;;1923495;73;21111;-75
2021/07/15 08:13:33;;;;;;;0.20;0.20;;;19.50;99.90;;;;;;1923354;74;21182;-74
2021/07/15 08:15:59;;;;;;;0.15;0.15;;;19.80;99.90;;;;;;1924048;74;21071;-75
2021/07/15 08:18:25;;;;;;;0.62;0.20;;;19.60;99.90;;;;;;1924073;73;21043;-75
2021/07/15 08:20:52;;;;;;;1.07;0.10;;;19.50;99.90;;;;;;1923817;73;21150;-75
2021/07/15 08:23:18;;;;;;;0.40;0.40;;;19.70;99.90;;;;;;1923952;74;21156;-75
2021/07/15 08:25:44;;;;;;;0.85;0.20;;;20.00;99.90;;;;;;1923991;73;21470;-74
2021/07/15 08:28:10;;;;;;;0.42;0.25;;;20.40;99.90;;;;;;1924070;74;21507;-76
2021/07/15 08:30:36;;;;;;;0.35;0.20;;;20.60;99.90;;;;;;1924211;74;21588;-75
2021/07/15 08:33:02;;;;;;;0.85;0.65;;;20.30;99.90;;;;;;1924521;74;21067;-75
2021/07/15 08:35:29;;;;;;;0.20;0.20;;;20.00;99.90;;;;;;1924030;74;21471;-74
2021/07/15 08:37:55;;;;;;;0.10;0.10;;;19.70;99.90;;;;;;1924053;74;21483;-75
2021/07/15 08:40:21;;;;;;;0.20;0.20;;;19.50;99.90;;;;;;1923957;73;21432;-75
2021/07/15 08:42:47;;;;;;;0.45;0.20;;;19.30;99.90;;;;;;1924269;74;21548;-75
2021/07/15 08:45:14;;;;;;;0.47;0.20;;;19.30;99.90;;;;;;1924302;74;21079;-74
2021/07/15 08:47:40;;;;;;;0.40;0.20;;;19.40;99.90;;;;;;1924359;74;21095;-75
2021/07/15 08:50:06;;;;;;;0.20;0.20;;;19.40;99.90;;;;;;1924788;73;21074;-75
2021/07/15 08:52:33;;;;;;;2.65;1.50;;;19.60;99.90;;;;;;1923792;74;21535;-76
2021/07/15 08:55:16;;;;;;;1.57;0.62;;;19.20;99.90;;;;;;1923623;74;21156;-76
2021/07/15 08:57:29;;;;;;;0.30;0.30;;;19.30;99.90;;;;;;1923667;73;21485;-76
2021/07/15 08:59:55;;;;;;;0.47;0.47;;;19.40;99.90;;;;;;1923734;74;21035;-76
2021/07/15 09:02:23;;;;;;;0.20;0.20;;;19.50;99.90;;;;;;1923598;74;21091;-76
2021/07/15 09:04:49;;;;;;;0.60;0.20;;;19.30;99.90;;;;;;1923634;74;21152;-77
2021/07/15 09:07:15;;;;;;;0.40;0.40;;;19.40;99.90;;;;;;1923589;74;21058;-75
2021/07/15 09:09:43;;;;;;;0.95;0.37;;;19.70;99.90;;;;;;1923262;74;21039;-76
2021/07/15 09:12:09;;;;;;;0.20;0.10;;;19.70;99.90;;;;;;1923570;74;21043;-76
2021/07/15 09:14:35;;;;;;;0.55;0.25;;;19.70;99.90;;;;;;1923602;74;21062;-75
2021/07/15 09:17:01;;;;;;;0.25;0.23;;;19.70;99.90;;;;;;1923544;74;21128;-75
2021/07/15 09:19:28;;;;;;;0.72;0.50;;;19.70;99.90;;;;;;1923581;74;21035;-74
2021/07/15 09:21:54;;;;;;;1.05;0.30;;;19.80;99.90;;;;;;1923487;73;21184;-75
2021/07/15 09:24:20;;;;;;;2.35;0.40;;;19.90;99.90;;;;;;1923338;74;21196;-75
2021/07/15 09:26:46;;;;;;;1.17;0.37;;;20.00;99.90;;;;;;1923522;74;21071;-74
2021/07/15 09:29:12;;;;;;;0.62;0.30;;;20.00;99.90;;;;;;1923791;74;21035;-75
2021/07/15 09:31:39;;;;;;;0.33;0.33;;;19.90;99.90;;;;;;1923661;74;21415;-74
2021/07/15 09:34:14;;;;;;;0.20;0.20;;;20.00;99.90;;;;;;1923801;74;21219;-75
2021/07/15 09:36:40;;;;;;;2.52;0.25;;;20.20;99.90;;;;;;1925225;74;21470;-74
2021/07/15 09:39:06;;;;;;;0.25;0.25;;;20.50;99.90;;;;;;1927583;74;21154;-74
2021/07/15 09:41:32;;;;;;;0.40;0.15;;;20.50;99.90;;;;;;1927160;74;21035;-74
2021/07/15 09:43:58;;;;;;;1.57;0.20;;;20.70;99.90;;;;;;1925143;74;21490;-74
2021/07/15 09:46:24;;;;;;;0.45;0.37;;;20.80;99.90;;;;;;1923965;73;21541;-75
2021/07/15 09:48:50;;;;;;;1.12;0.30;;;21.50;99.90;;;;;;1923904;74;21169;-75
2021/07/15 09:51:17;;;;;;;3.40;0.15;;;21.70;99.90;;;;;;1923926;74;21184;-75
2021/07/15 09:53:43;;;;;;;0.13;0.13;;;22.40;99.90;;;;;;1924072;74;21059;-75
2021/07/15 09:56:11;;;;;;;0.20;0.20;;;22.40;99.90;;;;;;1924044;74;21040;-75
2021/07/15 09:58:37;;;;;;;0.30;0.23;;;22.20;99.90;;;;;;1923841;73;21076;-75
2021/07/15 10:01:03;;;;;;;0.62;0.42;;;21.60;99.90;;;;;;1923809;74;21066;-74
2021/07/15 10:03:29;;;;;;;1.02;0.30;;;21.50;99.90;;;;;;1923829;73;21118;-76
2021/07/15 10:05:58;;;;;;;0.13;0.13;;;21.50;99.90;;;;;;1924167;74;21067;-75
2021/07/15 10:08:23;;;;;;;0.80;0.28;;;21.60;99.90;;;;;;1923815;74;21573;-75
2021/07/15 10:10:49;;;;;;;0.40;0.23;;;20.80;99.90;;;;;;1923848;74;21030;-76
2021/07/15 10:13:15;;;;;;;1.95;0.40;;;21.00;99.90;;;;;;1923963;74;21136;-75
2021/07/15 10:15:41;;;;;;;0.62;0.28;;;20.90;99.90;;;;;;1923921;74;21099;-75
2021/07/15 10:18:07;;;;;;;3.27;0.33;;;20.20;99.90;;;;;;1923969;74;21247;-75
2021/07/15 10:20:33;;;;;;;2.37;0.40;;;20.20;99.90;;;;;;1924075;74;21098;-75
2021/07/15 10:23:00;;;;;;;1.32;0.30;;;20.70;99.90;;;;;;1923747;74;21075;-75
2021/07/15 10:25:28;;;;;;;0.45;0.13;;;21.00;99.90;;;;;;1923288;74;21221;-74
2021/07/15 10:27:54;;;;;;;0.45;0.33;;;21.00;99.90;;;;;;1925254;74;21181;-75
2021/07/15 10:30:20;;;;;;;0.82;0.30;;;21.10;99.90;;;;;;1923816;74;21180;-75
2021/07/15 10:32:46;;;;;;;0.28;0.20;;;21.30;99.90;;;;;;1923826;74;21091;-75
2021/07/15 10:35:22;;;;;;;4.22;0.30;;;21.40;99.90;;;;;;1923775;74;21092;-75
2021/07/15 10:37:46;;;;;;;0.62;0.28;;;21.10;99.90;;;;;;1923639;74;21091;-75
2021/07/15 10:40:12;;;;;;;0.42;0.20;;;21.10;99.90;;;;;;1919188;74;21082;-75
2021/07/15 10:42:38;;;;;;;0.60;0.17;;;21.40;99.90;;;;;;1923835;74;21177;-76
2021/07/15 10:45:04;;;;;;;3.10;0.20;;;22.00;99.90;;;;;;1923728;73;21214;-76
2021/07/15 10:47:30;;;;;;;0.50;0.30;;;21.90;99.90;;;;;;1924143;74;21099;-76
2021/07/15 10:49:58;;;;;;;0.42;0.30;;;21.20;99.90;;;;;;1923925;74;21074;-76
2021/07/15 10:52:24;;;;;;;1.35;0.30;;;21.30;99.90;;;;;;1923826;74;21236;-76
2021/07/15 10:54:50;;;;;;;0.50;0.30;;;21.90;99.90;;;;;;1923811;74;21078;-76
2021/07/15 10:57:16;;;;;;;0.90;0.35;;;21.80;99.90;;;;;;1924406;74;21103;-75
2021/07/15 10:59:42;;;;;;;0.47;0.47;;;21.90;99.90;;;;;;1924688;74;21076;-75
2021/07/15 11:02:09;;;;;;;0.93;0.20;;;22.10;99.90;;;;;;1924544;74;21107;-76
2021/07/15 11:04:35;;;;;;;1.57;0.30;;;21.70;99.90;;;;;;1924535;74;21104;-76
2021/07/15 11:07:01;;;;;;;0.37;0.10;;;21.40;99.90;;;;;;1924336;74;21075;-75
2021/07/15 11:09:31;;;;;;;1.40;0.28;;;21.80;99.90;;;;;;1924418;74;21192;-75
2021/07/15 11:11:57;;;;;;;4.58;0.33;;;22.30;99.90;;;;;;1924848;74;21082;-75
2021/07/15 11:14:23;;;;;;;0.30;0.30;;;22.40;99.90;;;;;;1924391;73;21088;-75
2021/07/15 11:16:50;;;;;;;0.10;0.10;;;22.10;99.90;;;;;;1924375;74;21099;-75
2021/07/15 11:19:18;;;;;;;0.17;0.17;;;22.10;99.90;;;;;;1924489;74;21169;-75
2021/07/15 11:21:44;;;;;;;0.25;0.23;;;22.00;99.90;;;;;;1924451;74;21326;-74
2021/07/15 11:24:10;;;;;;;1.05;0.40;;;22.30;99.90;;;;;;1924439;74;21092;-74
2021/07/15 11:26:38;;;;;;;6.22;0.57;;;22.20;99.90;;;;;;1924342;74;21169;-75
2021/07/15 11:29:04;;;;;;;4.47;0.45;;;22.20;99.90;;;;;;1924076;74;21146;-76
2021/07/15 11:31:30;;;;;;;0.42;0.30;;;22.30;99.90;;;;;;1923909;74;21185;-76
2021/07/15 11:33:56;;;;;;;0.85;0.37;;;22.30;99.90;;;;;;1924062;74;21107;-76
2021/07/15 11:36:22;;;;;;;0.68;0.50;;;22.50;99.90;;;;;;1924072;74;21075;-78
2021/07/15 11:38:48;;;;;;;1.32;0.30;;;22.90;99.90;;;;;;1923886;74;21526;-76
2021/07/15 11:41:14;;;;;;;0.82;0.33;;;23.10;99.90;;;;;;1924024;74;21552;-75
2021/07/15 11:43:41;;;;;;;1.45;0.40;;;22.90;99.90;;;;;;1923949;73;21527;-79
2021/07/15 11:46:07;;;;;;;2.95;0.37;;;22.80;99.90;;;;;;1923996;74;21469;-77
2021/07/15 11:48:33;;;;;;;5.35;0.45;;;23.10;99.90;;;;;;1924195;74;21568;-78
2021/07/15 11:50:59;;;;;;;1.75;0.50;;;23.30;99.90;;;;;;1923817;74;21551;-77
2021/07/15 11:53:25;;;;;;;5.50;0.35;;;22.80;99.90;;;;;;1923664;74;21152;-78
2021/07/15 11:55:51;;;;;;;0.95;0.40;;;22.40;99.90;;;;;;1923956;74;21551;-78
2021/07/15 11:58:17;;;;;;;0.45;0.30;;;22.30;99.90;;;;;;1924177;73;21106;-77
2021/07/15 12:00:44;;;;;;;0.80;0.50;;;22.50;99.90;;;;;;1924213;74;21148;-78
2021/07/15 12:03:10;;;;;;;0.35;0.35;;;22.50;99.90;;;;;;1924144;73;21059;-77
2021/07/15 12:05:37;;;;;;;0.57;0.30;;;22.50;99.90;;;;;;1924162;74;21051;-78
2021/07/15 12:08:04;;;;;;;1.05;0.45;;;22.70;99.90;;;;;;1924077;74;21593;-78
2021/07/15 12:10:32;;;;;;;4.15;0.40;;;22.80;99.90;;;;;;1923993;74;21114;-78
2021/07/15 12:12:58;;;;;;;1.42;0.28;;;22.70;99.90;;;;;;1924219;74;21095;-78
2021/07/15 12:15:25;;;;;;;0.28;0.20;;;22.60;99.90;;;;;;1923874;74;21369;-78
2021/07/15 12:17:51;;;;;;;1.27;0.20;;;22.30;99.90;;;;;;1924205;74;21541;-77
2021/07/15 12:20:18;;;;;;;0.47;0.23;;;21.90;99.90;;;;;;1923914;74;21622;-77
2021/07/15 12:22:44;;;;;;;6.42;0.35;;;22.10;99.90;;;;;;1924013;74;21601;-78
2021/07/15 12:25:10;;;;;;;6.78;0.30;;;22.30;99.90;;;;;;1923987;74;21039;-77
2021/07/15 12:27:36;;;;;;;0.20;0.20;;;22.60;99.90;;;;;;1924116;74;21173;-78
2021/07/15 12:30:02;;;;;;;0.82;0.10;;;22.80;99.90;;;;;;1923960;74;21088;-80
2021/07/15 12:32:28;;;;;;;0.65;0.30;;;22.70;99.90;;;;;;1923990;73;21099;-80
2021/07/15 12:34:54;;;;;;;7.70;0.35;;;22.80;99.90;;;;;;1924160;74;21158;-81
2021/07/15 12:37:21;;;;;;;0.85;0.30;;;22.80;99.90;;;;;;1923591;74;21075;-76
2021/07/15 12:39:47;;;;;;;0.85;0.30;;;22.70;99.90;;;;;;1923583;74;21196;-77
2021/07/15 12:42:17;;;;;;;0.20;0.20;;;22.60;99.90;;;;;;1923346;74;21425;-81